createdAt,value
2022-11-20T00:01:21.937Z,5.43
2022-11-20T00:03:48.798Z,6.10
2022-11-20T00:06:18.364Z,5.97
2022-11-20T00:08:46.086Z,5.77
2022-11-20T00:11:16.435Z,5.68
2022-11-20T00:13:44.651Z,4.13
2022-11-20T00:16:12.653Z,4.20
2022-11-20T00:18:39.180Z,4.45
2022-11-20T00:21:14.906Z,4.47
2022-11-20T00:23:42.505Z,3.92
2022-11-20T00:26:11.297Z,4.47
2022-11-20T00:28:37.934Z,4.15
2022-11-20T00:31:06.791Z,4.20
2022-11-20T00:33:33.687Z,4.53
2022-11-20T00:36:11.975Z,4.50
2022-11-20T00:38:39.103Z,4.78
2022-11-20T00:41:08.362Z,4.45
2022-11-20T00:43:35.280Z,5.20
2022-11-20T00:46:04.324Z,5.40
2022-11-20T00:48:31.666Z,5.22
2022-11-20T00:50:58.676Z,5.38
2022-11-20T00:53:25.828Z,6.13
2022-11-20T00:56:02.752Z,7.10
2022-11-20T00:58:31.760Z,6.40
2022-11-20T01:01:08.974Z,6.03
2022-11-20T01:03:37.320Z,6.30
2022-11-20T01:06:06.596Z,6.25
2022-11-20T01:08:34.871Z,6.32
2022-11-20T01:11:13.464Z,7.77
2022-11-20T01:13:40.685Z,5.57
2022-11-20T01:16:08.310Z,5.55
2022-11-20T01:18:36.089Z,6.78
2022-11-20T01:21:05.314Z,6.28
2022-11-20T01:23:36.536Z,6.20
2022-11-20T01:26:06.276Z,7.00
2022-11-20T01:28:33.602Z,6.18
2022-11-20T01:31:17.998Z,6.80
2022-11-20T01:33:45.811Z,6.25
2022-11-20T01:36:13.524Z,5.70
2022-11-20T01:38:40.207Z,5.63
2022-11-20T01:41:08.110Z,5.80
2022-11-20T01:43:34.732Z,5.90
2022-11-20T01:46:02.761Z,5.95
2022-11-20T01:48:43.251Z,5.87
2022-11-20T01:51:20.122Z,5.45
2022-11-20T01:53:47.588Z,5.28
2022-11-20T01:56:15.744Z,5.70
2022-11-20T01:58:49.412Z,5.18
2022-11-20T02:01:16.335Z,5.37
2022-11-20T02:03:44.611Z,5.30
2022-11-20T02:06:35.725Z,5.10
2022-11-20T02:09:02.254Z,5.10
2022-11-20T02:11:30.704Z,5.28
2022-11-20T02:13:57.741Z,4.70
2022-11-20T02:16:47.095Z,4.40
2022-11-20T02:19:33.969Z,4.10
2022-11-20T02:22:08.932Z,4.05
2022-11-20T02:24:35.680Z,4.82
2022-11-20T02:27:05.074Z,3.87
2022-11-20T02:29:54.605Z,4.63
2022-11-20T02:32:33.538Z,3.70
2022-11-20T02:35:19.192Z,3.55
2022-11-20T02:37:48.831Z,4.18
2022-11-20T02:40:15.332Z,3.90
2022-11-20T02:42:41.954Z,4.15
2022-11-20T02:45:09.410Z,4.68
2022-11-20T02:47:35.963Z,4.60
2022-11-20T02:50:04.805Z,4.75
2022-11-20T02:52:31.793Z,5.43
2022-11-20T02:54:58.302Z,5.38
2022-11-20T02:57:24.813Z,7.25
2022-11-20T02:59:51.287Z,8.35
2022-11-20T03:02:17.932Z,7.63
2022-11-20T03:04:44.368Z,6.03
2022-11-20T03:07:10.937Z,6.75
2022-11-20T03:09:37.440Z,6.80
2022-11-20T03:12:04.063Z,7.82
2022-11-20T03:14:30.528Z,5.90
2022-11-20T03:16:57.053Z,5.43
2022-11-20T03:19:23.847Z,4.95
2022-11-20T03:21:50.731Z,4.85
2022-11-20T03:24:17.310Z,4.47
2022-11-20T03:26:44.003Z,4.68
2022-11-20T03:29:10.477Z,4.67
2022-11-20T03:31:42.940Z,4.25
2022-11-20T03:34:11.721Z,3.97
2022-11-20T03:36:40.086Z,4.00
2022-11-20T03:39:06.729Z,3.95
2022-11-20T03:41:38.300Z,4.57
2022-11-20T03:44:07.067Z,3.97
2022-11-20T03:46:34.029Z,4.35
2022-11-20T03:49:00.447Z,3.65
2022-11-20T03:51:35.562Z,4.03
2022-11-20T03:54:04.773Z,3.67
2022-11-20T03:56:33.972Z,3.63
2022-11-20T03:59:00.923Z,3.85
2022-11-20T04:01:38.566Z,3.70
2022-11-20T04:04:05.424Z,3.75
2022-11-20T04:06:36.517Z,4.23
2022-11-20T04:09:03.462Z,4.20
2022-11-20T04:11:32.695Z,3.40
2022-11-20T04:14:01.571Z,3.83
2022-11-20T04:16:31.894Z,4.10
2022-11-20T04:19:00.980Z,3.90
2022-11-20T04:21:28.456Z,4.22
2022-11-20T04:23:55.929Z,4.20
2022-11-20T04:26:24.465Z,3.85
2022-11-20T04:28:51.054Z,3.80
2022-11-20T04:31:20.943Z,3.93
2022-11-20T04:33:47.620Z,3.53
2022-11-20T04:36:23.132Z,3.40
2022-11-20T04:38:57.148Z,3.40
2022-11-20T04:41:26.489Z,3.58
2022-11-20T04:43:59.995Z,3.67
2022-11-20T04:46:28.415Z,4.38
2022-11-20T04:48:54.939Z,4.03
2022-11-20T04:51:21.480Z,3.88
2022-11-20T04:53:47.983Z,4.07
2022-11-20T04:56:14.961Z,5.07
2022-11-20T04:58:41.903Z,3.70
2022-11-20T05:01:13.310Z,3.33
2022-11-20T05:03:43.828Z,4.13
2022-11-20T05:06:12.929Z,4.05
2022-11-20T05:08:40.156Z,2.97
2022-11-20T05:11:18.879Z,3.92
2022-11-20T05:13:45.572Z,3.30
2022-11-20T05:16:18.194Z,3.38
2022-11-20T05:18:45.135Z,3.85
2022-11-20T05:21:13.368Z,4.47
2022-11-20T05:23:40.339Z,4.50
2022-11-20T05:26:08.642Z,4.65
2022-11-20T05:28:35.157Z,4.30
2022-11-20T05:31:06.971Z,3.17
2022-11-20T05:33:35.072Z,3.33
2022-11-20T05:36:02.413Z,3.45
2022-11-20T05:38:28.904Z,3.90
2022-11-20T05:40:55.298Z,3.15
2022-11-20T05:43:21.802Z,3.78
2022-11-20T05:45:55.615Z,3.87
2022-11-20T05:48:22.201Z,3.35
2022-11-20T05:50:49.448Z,3.28
2022-11-20T05:53:15.957Z,2.92
2022-11-20T05:55:42.543Z,3.80
2022-11-20T05:58:09.140Z,3.90
2022-11-20T06:00:36.357Z,3.53
2022-11-20T06:03:03.062Z,4.00
2022-11-20T06:05:29.648Z,3.72
2022-11-20T06:07:56.084Z,3.53
2022-11-20T06:10:22.547Z,3.93
2022-11-20T06:12:49.022Z,3.25
2022-11-20T06:15:15.560Z,3.95
2022-11-20T06:17:41.971Z,3.22
2022-11-20T06:20:09.124Z,3.78
2022-11-20T06:22:35.598Z,3.50
2022-11-20T06:25:02.071Z,3.90
2022-11-20T06:27:28.539Z,3.42
2022-11-20T06:29:54.947Z,4.55
2022-11-20T06:32:21.397Z,3.38
2022-11-20T06:34:47.901Z,3.93
2022-11-20T06:37:14.425Z,3.85
2022-11-20T06:39:40.906Z,3.47
2022-11-20T06:42:07.314Z,3.60
2022-11-20T06:44:33.816Z,3.80
2022-11-20T06:47:00.960Z,3.83
2022-11-20T06:49:27.542Z,3.47
2022-11-20T06:51:54.081Z,3.90
2022-11-20T06:54:20.524Z,4.03
2022-11-20T06:56:50.397Z,3.90
2022-11-20T06:59:16.881Z,4.07
2022-11-20T07:01:43.357Z,3.67
2022-11-20T07:04:09.899Z,4.40
2022-11-20T07:06:36.372Z,3.30
2022-11-20T07:09:03.487Z,3.45
2022-11-20T07:11:30.193Z,3.60
2022-11-20T07:13:57.780Z,4.05
2022-11-20T07:16:24.210Z,3.85
2022-11-20T07:18:51.230Z,4.05
2022-11-20T07:21:18.231Z,3.75
2022-11-20T07:23:44.787Z,4.17
2022-11-20T07:26:12.106Z,4.22
2022-11-20T07:28:39.040Z,4.00
2022-11-20T07:31:07.718Z,4.55
2022-11-20T07:33:34.415Z,4.22
2022-11-20T07:36:01.434Z,5.07
2022-11-20T07:38:28.062Z,4.13
2022-11-20T07:41:02.522Z,4.05
2022-11-20T07:43:29.196Z,3.92
2022-11-20T07:45:59.510Z,4.13
2022-11-20T07:48:26.775Z,4.20
2022-11-20T07:50:57.230Z,4.57
2022-11-20T07:53:24.638Z,4.32
2022-11-20T07:55:53.383Z,4.07
2022-11-20T07:58:21.072Z,4.45
2022-11-20T08:00:47.977Z,4.83
2022-11-20T08:03:14.800Z,4.65
2022-11-20T08:05:41.230Z,4.53
2022-11-20T08:08:08.655Z,5.05
2022-11-20T08:10:35.251Z,5.43
2022-11-20T08:13:20.052Z,5.00
2022-11-20T08:15:51.028Z,5.55
2022-11-20T08:18:33.702Z,5.07
2022-11-20T08:21:05.091Z,4.53
2022-11-20T08:23:31.717Z,5.53
2022-11-20T08:25:58.418Z,4.90
2022-11-20T08:28:24.905Z,5.75
2022-11-20T08:30:51.689Z,5.90
2022-11-20T08:33:19.018Z,5.47
2022-11-20T08:35:45.773Z,5.80
2022-11-20T08:38:12.383Z,5.57
2022-11-20T08:40:38.902Z,5.60
2022-11-20T08:43:05.368Z,5.97
2022-11-20T08:45:34.566Z,6.25
2022-11-20T08:48:02.952Z,6.18
2022-11-20T08:50:30.283Z,6.20
2022-11-20T08:52:56.758Z,5.88
2022-11-20T08:55:23.234Z,6.20
2022-11-20T08:57:51.158Z,5.93
2022-11-20T09:00:18.351Z,5.85
2022-11-20T09:02:44.864Z,5.30
2022-11-20T09:05:11.443Z,5.93
2022-11-20T09:07:38.049Z,6.00
2022-11-20T09:10:23.097Z,6.25
2022-11-20T09:12:52.762Z,6.07
2022-11-20T09:15:20.297Z,4.93
2022-11-20T09:17:54.114Z,5.18
2022-11-20T09:20:21.070Z,5.63
2022-11-20T09:22:47.793Z,5.78
2022-11-20T09:25:14.295Z,6.18
2022-11-20T09:27:42.471Z,6.23
2022-11-20T09:30:09.481Z,5.55
2022-11-20T09:32:36.784Z,6.68
2022-11-20T09:35:03.393Z,6.40
2022-11-20T09:37:30.122Z,7.28
2022-11-20T09:39:56.628Z,6.63
2022-11-20T09:42:35.301Z,7.25
2022-11-20T09:45:20.076Z,7.03
2022-11-20T09:47:46.501Z,7.13
2022-11-20T09:50:36.825Z,7.30
2022-11-20T09:53:27.734Z,7.03
2022-11-20T09:55:55.888Z,7.95
2022-11-20T09:58:35.972Z,7.65
2022-11-20T10:01:34.052Z,7.40
2022-11-20T10:04:15.792Z,6.88
2022-11-20T10:07:30.253Z,7.63
2022-11-20T10:09:54.897Z,7.53
2022-11-20T10:12:56.985Z,7.95
2022-11-20T10:15:35.228Z,8.82
2022-11-20T10:18:07.477Z,8.52
2022-11-20T10:20:47.289Z,8.30
2022-11-20T10:23:42.382Z,9.77
2022-11-20T10:26:32.991Z,9.48
2022-11-20T10:29:17.847Z,9.50
2022-11-20T10:31:48.834Z,9.00
2022-11-20T10:34:41.856Z,9.13
2022-11-20T10:37:19.469Z,9.32
2022-11-20T10:40:02.189Z,8.85
2022-11-20T10:42:40.059Z,7.68
2022-11-20T10:45:22.778Z,7.53
2022-11-20T10:47:49.686Z,7.47
2022-11-20T10:50:22.633Z,8.18
2022-11-20T10:53:21.439Z,8.57
2022-11-20T10:56:08.943Z,8.82
2022-11-20T10:58:45.408Z,8.88
2022-11-20T11:01:18.018Z,8.07
2022-11-20T11:03:45.650Z,8.77
2022-11-20T11:06:20.928Z,9.25
2022-11-20T11:08:50.309Z,8.88
2022-11-20T11:11:23.336Z,8.98
2022-11-20T11:13:49.943Z,8.97
2022-11-20T11:16:27.648Z,9.23
2022-11-20T11:19:05.930Z,9.15
2022-11-20T11:21:32.444Z,9.82
2022-11-20T11:24:26.901Z,8.90
2022-11-20T11:27:16.460Z,9.23
2022-11-20T11:29:44.062Z,9.40
2022-11-20T11:32:16.077Z,9.05
2022-11-20T11:34:42.524Z,9.50
2022-11-20T11:37:35.815Z,10.43
2022-11-20T11:40:23.458Z,10.43
2022-11-20T11:42:59.400Z,9.38
2022-11-20T11:45:26.747Z,9.30
2022-11-20T11:47:56.731Z,10.48
2022-11-20T11:50:25.867Z,11.00
2022-11-20T11:53:14.003Z,10.27
2022-11-20T11:55:52.321Z,10.40
2022-11-20T11:58:35.979Z,9.93
2022-11-20T12:01:34.404Z,11.10
2022-11-20T12:04:06.945Z,10.13
2022-11-20T12:06:37.000Z,10.17
2022-11-20T12:09:06.664Z,10.45
2022-11-20T12:11:59.798Z,9.73
2022-11-20T12:14:35.171Z,10.10
2022-11-20T12:17:02.881Z,9.90
2022-11-20T12:19:35.709Z,10.10
2022-11-20T12:22:32.932Z,10.65
2022-11-20T12:25:25.826Z,11.30
2022-11-20T12:28:10.638Z,10.18
2022-11-20T12:30:48.257Z,10.13
2022-11-20T12:33:34.408Z,10.70
2022-11-20T12:36:16.935Z,10.73
2022-11-20T12:38:56.067Z,9.48
2022-11-20T12:41:57.802Z,10.02
2022-11-20T12:44:55.046Z,10.38
2022-11-20T12:47:40.386Z,9.70
2022-11-20T12:50:16.734Z,9.95
2022-11-20T12:52:48.418Z,10.80
2022-11-20T12:55:58.159Z,10.57
2022-11-20T12:58:24.651Z,10.30
2022-11-20T13:01:43.529Z,10.50
2022-11-20T13:04:13.082Z,11.07
2022-11-20T13:06:42.568Z,10.68
2022-11-20T13:09:18.438Z,10.10
2022-11-20T13:12:11.064Z,10.35
2022-11-20T13:14:47.133Z,10.40
2022-11-20T13:17:37.756Z,10.30
2022-11-20T13:20:07.651Z,10.30
2022-11-20T13:22:48.589Z,9.60
2022-11-20T13:25:35.935Z,10.52
2022-11-20T13:28:22.361Z,9.80
2022-11-20T13:30:54.974Z,10.45
2022-11-20T13:33:36.596Z,10.88
2022-11-20T13:36:33.525Z,10.05
2022-11-20T13:39:00.410Z,11.13
2022-11-20T13:41:36.274Z,10.30
2022-11-20T13:44:38.947Z,10.07
2022-11-20T13:47:23.087Z,9.85
2022-11-20T13:49:50.259Z,10.73
2022-11-20T13:52:51.991Z,10.93
2022-11-20T13:55:44.236Z,10.73
2022-11-20T13:58:13.761Z,10.68
2022-11-20T14:00:53.482Z,10.77
2022-11-20T14:03:44.025Z,10.32
2022-11-20T14:06:27.131Z,10.15
2022-11-20T14:08:54.174Z,10.40
2022-11-20T14:11:23.806Z,11.05
2022-11-20T14:13:55.020Z,11.40
2022-11-20T14:16:23.024Z,11.30
2022-11-20T14:18:50.255Z,11.35
2022-11-20T14:21:27.424Z,10.47
2022-11-20T14:24:04.756Z,9.98
2022-11-20T14:26:31.992Z,9.60
2022-11-20T14:28:59.215Z,10.10
2022-11-20T14:31:28.222Z,12.10
2022-11-20T14:33:55.932Z,10.53
2022-11-20T14:36:26.131Z,10.55
2022-11-20T14:38:53.866Z,10.43
2022-11-20T14:41:23.435Z,10.38
2022-11-20T14:43:57.264Z,10.32
2022-11-20T14:46:24.744Z,10.17
2022-11-20T14:48:54.861Z,10.68
2022-11-20T14:51:29.321Z,10.52
2022-11-20T14:53:55.829Z,10.85
2022-11-20T14:56:25.748Z,9.77
2022-11-20T14:58:59.047Z,9.63
2022-11-20T15:01:30.710Z,10.32
2022-11-20T15:04:06.787Z,10.80
2022-11-20T15:06:33.547Z,10.75
2022-11-20T15:09:00.189Z,11.90
2022-11-20T15:11:34.736Z,11.20
2022-11-20T15:14:07.327Z,11.27
2022-11-20T15:16:34.104Z,10.93
2022-11-20T15:19:01.711Z,10.98
2022-11-20T15:21:28.524Z,10.38
2022-11-20T15:23:55.009Z,10.17
2022-11-20T15:26:28.993Z,12.57
2022-11-20T15:32:48.319Z,10.77
2022-11-20T15:35:19.109Z,12.38
2022-11-20T15:37:45.610Z,11.40
2022-11-20T15:40:12.511Z,10.77
2022-11-20T15:42:39.089Z,11.30
2022-11-20T15:45:06.057Z,10.30
2022-11-20T15:47:36.027Z,9.65
2022-11-20T15:50:02.625Z,11.47
2022-11-20T15:52:36.336Z,11.25
2022-11-20T15:55:11.927Z,11.45
2022-11-20T15:57:38.434Z,10.45
2022-11-20T16:00:05.649Z,11.52
2022-11-20T16:02:32.117Z,10.63
2022-11-20T16:04:58.624Z,11.60
2022-11-20T16:07:25.163Z,10.60
2022-11-20T16:09:51.631Z,10.60
2022-11-20T16:12:38.051Z,10.57
2022-11-20T16:15:23.442Z,9.63
2022-11-20T16:17:49.937Z,9.93
2022-11-20T16:20:16.644Z,10.80
2022-11-20T16:22:43.270Z,10.45
2022-11-20T16:25:09.866Z,10.02
2022-11-20T16:27:36.366Z,9.33
2022-11-20T16:30:02.925Z,10.07
2022-11-20T16:32:29.525Z,10.90
2022-11-20T16:34:55.952Z,9.38
2022-11-20T16:37:22.385Z,10.50
2022-11-20T16:39:48.852Z,10.57
2022-11-20T16:42:15.339Z,10.80
2022-11-20T16:44:41.817Z,11.85
2022-11-20T16:47:08.301Z,10.57
2022-11-20T16:49:34.781Z,10.13
2022-11-20T16:52:01.266Z,9.60
2022-11-20T16:54:28.060Z,9.20
2022-11-20T16:56:54.849Z,9.98
2022-11-20T16:59:21.308Z,9.93
2022-11-20T17:01:48.505Z,9.20
2022-11-20T17:04:15.094Z,9.87
2022-11-20T17:06:47.875Z,9.57
2022-11-20T17:09:14.712Z,10.45
2022-11-20T17:11:41.247Z,9.70
2022-11-20T17:14:07.825Z,9.70
2022-11-20T17:16:36.389Z,10.47
2022-11-20T17:19:05.526Z,9.77
2022-11-20T17:21:33.556Z,9.75
2022-11-20T17:24:02.938Z,9.90
2022-11-20T17:26:29.468Z,9.35
2022-11-20T17:29:04.688Z,10.17
2022-11-20T17:31:33.318Z,11.75
2022-11-20T17:34:00.392Z,10.68
2022-11-20T17:36:27.921Z,10.77
2022-11-20T17:38:54.758Z,10.82
2022-11-20T17:41:25.430Z,11.13
2022-11-20T17:43:56.640Z,10.32
2022-11-20T17:46:25.612Z,10.95
2022-11-20T17:49:05.083Z,11.38
2022-11-20T17:51:34.576Z,10.65
2022-11-20T17:54:04.503Z,11.63
2022-11-20T17:56:51.018Z,11.52
2022-11-20T17:59:18.693Z,11.30
2022-11-20T18:01:45.508Z,11.75
2022-11-20T18:04:12.902Z,11.73
2022-11-20T18:06:39.941Z,10.17
2022-11-20T18:09:07.209Z,11.77
2022-11-20T18:11:36.577Z,11.65
2022-11-20T18:14:25.113Z,10.18
2022-11-20T18:16:54.667Z,11.30
2022-11-20T18:19:23.806Z,7.97
2022-11-20T18:21:50.373Z,8.45
2022-11-20T18:24:17.414Z,10.15
2022-11-20T18:26:44.608Z,10.85
2022-11-20T18:29:12.951Z,9.68
2022-11-20T18:31:40.146Z,10.77
2022-11-20T18:34:11.430Z,9.27
2022-11-20T18:36:38.460Z,10.15
2022-11-20T18:39:05.102Z,10.52
2022-11-20T18:41:50.820Z,9.35
2022-11-20T18:44:39.205Z,9.63
2022-11-20T18:47:14.098Z,10.07
2022-11-20T18:49:41.887Z,10.15
2022-11-20T18:52:09.088Z,9.90
2022-11-20T18:54:36.874Z,9.18
2022-11-20T18:57:05.067Z,10.13
2022-11-20T18:59:32.136Z,8.77
2022-11-20T19:01:58.792Z,9.77
2022-11-20T19:04:25.702Z,10.57
2022-11-20T19:06:56.027Z,10.15
2022-11-20T19:09:23.813Z,10.43
2022-11-20T19:11:51.390Z,10.07
2022-11-20T19:14:18.359Z,10.07
2022-11-20T19:16:45.042Z,11.05
2022-11-20T19:19:11.714Z,9.90
2022-11-20T19:21:38.207Z,10.20
2022-11-20T19:24:05.662Z,10.00
2022-11-20T19:26:34.424Z,10.60
2022-11-20T19:29:01.028Z,11.70
2022-11-20T19:31:27.645Z,10.77
2022-11-20T19:34:00.815Z,11.20
2022-11-20T19:36:30.056Z,10.18
2022-11-20T19:38:56.836Z,10.85
2022-11-20T19:41:31.707Z,10.35
2022-11-20T19:44:03.513Z,10.60
2022-11-20T19:46:32.295Z,10.67
2022-11-20T19:48:59.310Z,10.48
2022-11-20T19:51:31.128Z,10.25
2022-11-20T19:53:59.492Z,10.48
2022-11-20T19:56:28.636Z,9.98
2022-11-20T19:58:56.614Z,10.17
2022-11-20T20:01:26.728Z,11.15
2022-11-20T20:03:53.920Z,9.98
2022-11-20T20:06:23.456Z,10.18
2022-11-20T20:08:58.498Z,9.07
2022-11-20T20:11:27.324Z,9.57
2022-11-20T20:13:55.969Z,9.88
2022-11-20T20:16:24.476Z,9.80
2022-11-20T20:18:57.916Z,9.65
2022-11-20T20:21:24.861Z,9.25
2022-11-20T20:23:53.519Z,11.00
2022-11-20T20:26:22.147Z,9.73
2022-11-20T20:28:48.640Z,11.52
2022-11-20T20:31:19.329Z,10.07
2022-11-20T20:33:46.193Z,10.63
2022-11-20T20:36:15.203Z,10.80
2022-11-20T20:38:43.321Z,11.65
2022-11-20T20:41:10.067Z,10.20
2022-11-20T20:43:57.393Z,10.50
2022-11-20T20:46:24.579Z,11.10
2022-11-20T20:48:54.634Z,10.50
2022-11-20T20:51:21.988Z,10.02
2022-11-20T20:53:49.007Z,11.07
2022-11-20T20:56:16.353Z,11.38
2022-11-20T20:58:42.896Z,11.57
2022-11-20T21:01:12.659Z,11.93
2022-11-20T21:03:39.810Z,11.57
2022-11-20T21:06:09.898Z,10.85
2022-11-20T21:08:40.145Z,11.27
2022-11-20T21:11:13.350Z,11.45
2022-11-20T21:13:41.489Z,11.00
2022-11-20T21:16:08.121Z,11.43
2022-11-20T21:18:35.096Z,11.27
2022-11-20T21:21:23.840Z,11.63
2022-11-20T21:23:52.046Z,11.10
2022-11-20T21:26:19.044Z,11.37
2022-11-20T21:28:45.963Z,11.15
2022-11-20T21:31:15.451Z,11.07
2022-11-20T21:33:44.196Z,10.15
2022-11-20T21:36:13.849Z,11.02
2022-11-20T21:38:40.739Z,11.87
2022-11-20T21:41:10.259Z,10.88
2022-11-20T21:43:37.137Z,11.75
2022-11-20T21:46:06.367Z,11.38
2022-11-20T21:48:34.039Z,10.93
2022-11-20T21:51:06.789Z,11.87
2022-11-20T21:53:34.062Z,10.20
2022-11-20T21:56:00.675Z,11.05
2022-11-20T21:58:27.548Z,9.57
2022-11-20T22:00:54.680Z,11.23
2022-11-20T22:03:22.080Z,10.83
2022-11-20T22:05:58.863Z,11.80
2022-11-20T22:08:26.626Z,11.55
2022-11-20T22:10:55.007Z,11.13
2022-11-20T22:13:40.050Z,11.57
2022-11-20T22:16:06.592Z,11.50
2022-11-20T22:18:33.154Z,10.65
2022-11-20T22:21:09.108Z,11.20
2022-11-20T22:23:36.002Z,11.30
2022-11-20T22:26:14.292Z,12.90
2022-11-20T22:28:41.184Z,11.83
2022-11-20T22:31:09.577Z,11.68
2022-11-20T22:33:37.748Z,11.02
2022-11-20T22:36:06.004Z,12.32
2022-11-20T22:38:38.916Z,12.13
2022-11-20T22:41:08.802Z,11.23
2022-11-20T22:43:36.075Z,12.43
2022-11-20T22:46:04.048Z,10.90
2022-11-20T22:48:30.591Z,12.20
2022-11-20T22:51:09.350Z,12.68
2022-11-20T22:53:36.199Z,12.70
2022-11-20T22:56:03.710Z,11.70
2022-11-20T22:58:31.623Z,11.80
2022-11-20T23:01:33.509Z,12.65
2022-11-20T23:04:02.460Z,13.18
2022-11-20T23:06:29.687Z,13.07
2022-11-20T23:08:56.728Z,12.88
2022-11-20T23:11:26.228Z,12.30
2022-11-20T23:14:01.377Z,11.73
2022-11-20T23:16:29.771Z,13.65
2022-11-20T23:18:58.754Z,14.57
2022-11-20T23:21:26.077Z,12.30
2022-11-20T23:23:55.306Z,10.60
2022-11-20T23:26:24.707Z,12.23
2022-11-20T23:28:54.290Z,12.23
2022-11-20T23:31:21.272Z,11.80
2022-11-20T23:33:47.729Z,12.73
2022-11-20T23:36:14.227Z,11.98
2022-11-20T23:38:41.039Z,11.45
2022-11-20T23:41:07.887Z,11.73
2022-11-20T23:43:34.792Z,12.63
2022-11-20T23:46:02.484Z,11.18
2022-11-20T23:48:34.929Z,11.80
2022-11-20T23:51:01.939Z,11.43
2022-11-20T23:53:29.013Z,11.75
2022-11-20T23:55:57.734Z,9.03
2022-11-20T23:58:29.787Z,11.20
